createdAt,value
2018-03-07T00:00:58.475Z,9.79
2018-03-07T00:03:28.267Z,9.62
2018-03-07T00:05:58.748Z,9.69
2018-03-07T00:08:28.450Z,9.69
2018-03-07T00:10:58.173Z,9.66
2018-03-07T00:13:27.946Z,9.67
2018-03-07T00:15:57.664Z,9.62
2018-03-07T00:18:27.402Z,9.64
2018-03-07T00:20:58.004Z,9.64
2018-03-07T00:23:27.702Z,9.62
2018-03-07T00:25:57.480Z,9.66
2018-03-07T00:28:27.505Z,9.64
2018-03-07T00:30:57.224Z,9.58
2018-03-07T00:33:26.931Z,9.63
2018-03-07T00:35:56.682Z,9.64
2018-03-07T00:38:27.131Z,9.67
2018-03-07T00:40:57.705Z,9.73
2018-03-07T00:43:27.414Z,9.75
2018-03-07T00:45:57.320Z,9.76
2018-03-07T00:48:27.081Z,9.75
2018-03-07T00:50:56.784Z,9.72
2018-03-07T00:53:26.504Z,9.70
2018-03-07T00:55:56.201Z,9.70
2018-03-07T00:58:26.004Z,9.69
2018-03-07T01:00:55.707Z,9.61
2018-03-07T01:03:25.383Z,9.60
2018-03-07T01:05:55.176Z,9.62
2018-03-07T01:08:25.073Z,9.68
2018-03-07T01:10:54.838Z,9.72
2018-03-07T01:13:25.425Z,9.73
2018-03-07T01:15:55.136Z,9.74
2018-03-07T01:18:24.899Z,9.75
2018-03-07T01:20:54.819Z,9.78
2018-03-07T01:23:24.541Z,9.75
2018-03-07T01:25:54.253Z,9.68
2018-03-07T01:28:24.017Z,9.67
2018-03-07T01:30:54.544Z,9.72
2018-03-07T01:33:24.408Z,9.72
2018-03-07T01:35:54.246Z,9.76
2018-03-07T01:38:24.073Z,9.79
2018-03-07T01:40:53.865Z,9.84
2018-03-07T01:43:23.588Z,9.88
2018-03-07T01:45:53.340Z,10.02
2018-03-07T01:48:23.057Z,9.97
2018-03-07T01:50:52.798Z,9.81
2018-03-07T01:53:22.488Z,9.76
2018-03-07T01:55:52.183Z,9.58
2018-03-07T01:58:22.048Z,9.51
2018-03-07T02:00:51.956Z,9.49
2018-03-07T02:03:21.689Z,9.46
2018-03-07T02:05:51.526Z,9.45
2018-03-07T02:08:21.246Z,9.40
2018-03-07T02:10:51.042Z,9.35
2018-03-07T02:13:20.725Z,9.27
2018-03-07T02:15:50.484Z,9.19
2018-03-07T02:18:20.170Z,9.20
2018-03-07T02:20:49.936Z,9.16
2018-03-07T02:23:19.617Z,9.11
2018-03-07T02:25:49.451Z,9.06
2018-03-07T02:28:19.905Z,9.04
2018-03-07T02:30:49.867Z,9.04
2018-03-07T02:33:19.574Z,9.05
2018-03-07T02:35:49.257Z,9.06
2018-03-07T02:38:19.714Z,9.02
2018-03-07T02:40:49.498Z,8.99
2018-03-07T02:43:19.234Z,8.93
2018-03-07T02:45:49.747Z,8.93
2018-03-07T02:48:19.474Z,8.90
2018-03-07T02:50:49.317Z,8.85
2018-03-07T02:53:19.001Z,8.75
2018-03-07T02:55:48.717Z,8.72
2018-03-07T02:58:18.525Z,8.67
2018-03-07T03:00:48.377Z,8.67
2018-03-07T03:03:18.080Z,8.68
2018-03-07T03:05:47.907Z,8.68
2018-03-07T03:08:17.636Z,8.66
2018-03-07T03:10:47.388Z,8.62
2018-03-07T03:13:17.917Z,8.55
2018-03-07T03:15:47.728Z,8.53
2018-03-07T03:18:17.398Z,8.42
2018-03-07T03:20:47.125Z,8.43
2018-03-07T03:23:16.862Z,8.29
2018-03-07T03:25:46.632Z,8.17
2018-03-07T03:28:16.340Z,8.19
2018-03-07T03:30:46.019Z,8.21
2018-03-07T03:33:15.864Z,8.23
2018-03-07T03:35:45.572Z,8.26
2018-03-07T03:38:15.265Z,8.34
2018-03-07T03:40:45.888Z,8.35
2018-03-07T03:43:15.617Z,8.37
2018-03-07T03:45:46.150Z,8.35
2018-03-07T03:48:15.876Z,8.34
2018-03-07T03:50:46.336Z,8.45
2018-03-07T03:53:16.055Z,8.45
2018-03-07T03:55:46.531Z,8.14
2018-03-07T03:58:16.464Z,8.01
2018-03-07T04:00:46.200Z,8.06
2018-03-07T04:03:15.963Z,7.93
2018-03-07T04:05:46.423Z,7.94
2018-03-07T04:08:16.256Z,7.92
2018-03-07T04:10:45.933Z,7.89
2018-03-07T04:13:16.547Z,7.85
2018-03-07T04:15:46.264Z,7.94
2018-03-07T04:18:15.972Z,7.84
2018-03-07T04:20:45.629Z,7.73
2018-03-07T04:23:15.348Z,7.73
2018-03-07T04:25:45.150Z,7.73
2018-03-07T04:28:14.907Z,7.55
2018-03-07T04:30:44.619Z,7.49
2018-03-07T04:33:14.450Z,7.56
2018-03-07T04:35:44.916Z,7.49
2018-03-07T04:38:14.775Z,7.39
2018-03-07T04:40:44.517Z,7.43
2018-03-07T04:43:14.183Z,7.45
2018-03-07T04:45:44.013Z,7.55
2018-03-07T04:48:13.761Z,7.51
2018-03-07T04:50:43.497Z,7.44
2018-03-07T04:53:13.275Z,7.42
2018-03-07T04:55:43.098Z,7.38
2018-03-07T04:58:12.823Z,7.41
2018-03-07T05:00:42.592Z,7.41
2018-03-07T05:03:13.268Z,7.44
2018-03-07T05:05:43.775Z,7.17
2018-03-07T05:08:13.590Z,7.06
2018-03-07T05:10:43.316Z,6.98
2018-03-07T05:13:13.185Z,7.04
2018-03-07T05:15:42.870Z,7.16
2018-03-07T05:18:12.581Z,7.13
2018-03-07T05:20:42.263Z,7.22
2018-03-07T05:23:12.137Z,7.23
2018-03-07T05:25:41.810Z,7.25
2018-03-07T05:28:11.494Z,7.01
2018-03-07T05:30:41.985Z,6.97
2018-03-07T05:33:11.751Z,6.94
2018-03-07T05:35:41.539Z,6.93
2018-03-07T05:38:11.286Z,6.97
2018-03-07T05:40:41.026Z,7.08
2018-03-07T05:43:11.486Z,7.17
2018-03-07T05:45:41.180Z,7.25
2018-03-07T05:48:11.009Z,7.32
2018-03-07T05:50:40.707Z,7.35
2018-03-07T05:53:10.500Z,7.37
2018-03-07T05:55:40.269Z,7.37
2018-03-07T05:58:09.989Z,7.39
2018-03-07T06:00:39.740Z,7.45
2018-03-07T06:03:10.343Z,7.48
2018-03-07T06:05:40.072Z,7.50
2018-03-07T06:08:09.836Z,7.57
2018-03-07T06:10:39.624Z,7.59
2018-03-07T06:13:09.478Z,7.59
2018-03-07T06:15:39.343Z,7.48
2018-03-07T06:18:09.070Z,7.40
2018-03-07T06:20:38.766Z,7.29
2018-03-07T06:23:08.652Z,7.33
2018-03-07T06:25:39.180Z,7.30
2018-03-07T06:28:09.733Z,7.34
2018-03-07T06:30:40.331Z,7.33
2018-03-07T06:33:10.139Z,7.43
2018-03-07T06:35:39.976Z,7.47
2018-03-07T06:38:09.726Z,7.51
2018-03-07T06:40:39.680Z,7.60
2018-03-07T06:43:10.183Z,7.57
2018-03-07T06:45:40.089Z,7.55
2018-03-07T06:48:09.965Z,7.57
2018-03-07T06:50:40.544Z,7.60
2018-03-07T06:53:10.243Z,7.55
2018-03-07T06:55:39.988Z,7.52
2018-03-07T07:01:09.576Z,7.73
2018-03-07T07:03:39.270Z,7.88
2018-03-07T07:06:09.101Z,8.12
2018-03-07T07:08:38.883Z,8.34
2018-03-07T07:11:09.356Z,8.54
2018-03-07T07:13:39.168Z,8.78
2018-03-07T07:16:08.906Z,9.00
2018-03-07T07:18:38.645Z,9.12
2018-03-07T07:21:08.449Z,9.15
2018-03-07T07:23:38.253Z,9.11
2018-03-07T07:26:08.032Z,9.08
2018-03-07T07:28:37.738Z,9.13
2018-03-07T07:31:07.527Z,9.16
2018-03-07T07:33:37.329Z,9.20
2018-03-07T07:36:07.090Z,9.19
2018-03-07T07:38:36.924Z,9.23
2018-03-07T07:41:06.661Z,9.23
2018-03-07T07:43:36.395Z,9.28
2018-03-07T07:46:07.512Z,9.39
2018-03-07T07:48:37.336Z,9.31
2018-03-07T07:51:07.096Z,9.48
2018-03-07T07:53:37.616Z,9.49
2018-03-07T07:56:07.393Z,9.77
2018-03-07T07:58:37.156Z,10.12
2018-03-07T08:01:06.939Z,10.25
2018-03-07T08:03:36.696Z,10.32
2018-03-07T08:06:06.477Z,10.36
2018-03-07T08:08:36.336Z,10.30
2018-03-07T08:11:06.174Z,10.25
2018-03-07T08:13:36.635Z,10.28
2018-03-07T08:16:07.582Z,10.24
2018-03-07T08:18:37.817Z,10.14
2018-03-07T08:21:08.356Z,10.22
2018-03-07T08:23:38.211Z,10.32
2018-03-07T08:26:07.898Z,10.35
2018-03-07T08:28:37.694Z,10.35
2018-03-07T08:31:07.564Z,10.40
2018-03-07T08:33:38.161Z,10.46
2018-03-07T08:36:08.000Z,10.56
2018-03-07T08:38:37.897Z,10.69
2018-03-07T08:41:07.685Z,10.82
2018-03-07T08:43:38.190Z,10.85
2018-03-07T08:46:08.071Z,10.98
2018-03-07T08:48:37.966Z,11.06
2018-03-07T08:51:08.545Z,11.21
2018-03-07T08:53:38.296Z,11.17
2018-03-07T08:56:08.065Z,10.88
2018-03-07T08:58:37.816Z,10.94
2018-03-07T09:01:07.605Z,10.97
2018-03-07T09:03:37.403Z,10.88
2018-03-07T09:06:07.230Z,10.87
2018-03-07T09:08:36.970Z,10.98
2018-03-07T09:11:06.765Z,11.06
2018-03-07T09:13:36.495Z,11.20
2018-03-07T09:16:07.027Z,11.23
2018-03-07T09:18:36.766Z,11.32
2018-03-07T09:21:07.363Z,11.41
2018-03-07T09:23:37.181Z,11.46
2018-03-07T09:26:07.012Z,11.56
2018-03-07T09:28:36.781Z,11.62
2018-03-07T09:31:07.456Z,11.62
2018-03-07T09:33:37.238Z,11.81
2018-03-07T09:36:07.199Z,11.79
2018-03-07T09:38:36.972Z,11.84
2018-03-07T09:41:06.904Z,11.85
2018-03-07T09:43:36.731Z,11.94
2018-03-07T09:46:06.634Z,11.89
2018-03-07T09:48:36.405Z,11.96
2018-03-07T09:51:06.965Z,12.13
2018-03-07T09:53:36.912Z,12.16
2018-03-07T09:56:06.797Z,11.98
2018-03-07T09:58:36.687Z,11.98
2018-03-07T10:01:06.624Z,11.87
2018-03-07T10:03:37.285Z,12.07
2018-03-07T10:06:07.039Z,12.29
2018-03-07T10:08:36.817Z,12.50
2018-03-07T10:11:06.812Z,12.62
2018-03-07T10:13:36.530Z,12.65
2018-03-07T10:16:06.306Z,12.90
2018-03-07T10:18:36.965Z,13.08
2018-03-07T10:21:06.728Z,13.26
2018-03-07T10:23:36.448Z,13.40
2018-03-07T10:26:06.264Z,13.51
2018-03-07T10:28:36.065Z,13.37
2018-03-07T10:31:05.910Z,13.09
2018-03-07T10:33:35.657Z,12.95
2018-03-07T10:36:05.522Z,12.93
2018-03-07T10:38:35.465Z,12.93
2018-03-07T10:41:05.320Z,12.73
2018-03-07T10:43:35.200Z,12.66
2018-03-07T10:46:05.104Z,12.63
2018-03-07T10:48:34.855Z,12.67
2018-03-07T10:51:04.660Z,12.45
2018-03-07T10:53:35.197Z,12.33
2018-03-07T10:56:05.780Z,12.36
2018-03-07T10:58:35.569Z,12.33
2018-03-07T11:01:05.374Z,12.23
2018-03-07T11:03:35.157Z,12.18
2018-03-07T11:06:05.120Z,11.97
2018-03-07T11:08:34.985Z,11.89
2018-03-07T11:11:04.925Z,11.93
2018-03-07T11:13:34.683Z,11.79
2018-03-07T11:16:04.523Z,11.86
2018-03-07T11:18:35.038Z,11.90
2018-03-07T11:21:04.837Z,12.02
2018-03-07T11:23:34.636Z,12.14
2018-03-07T11:26:04.725Z,12.29
2018-03-07T11:28:34.557Z,12.34
2018-03-07T11:31:04.461Z,12.51
2018-03-07T11:33:34.217Z,12.61
2018-03-07T11:36:04.851Z,12.61
2018-03-07T11:38:34.634Z,12.62
2018-03-07T11:41:04.400Z,12.59
2018-03-07T11:43:34.933Z,12.77
2018-03-07T11:46:04.795Z,12.73
2018-03-07T11:48:34.576Z,12.86
2018-03-07T11:51:04.575Z,12.99
2018-03-07T11:53:34.481Z,12.98
2018-03-07T11:56:04.262Z,12.70
2018-03-07T11:58:34.016Z,12.52
2018-03-07T12:01:03.785Z,12.35
2018-03-07T12:03:33.706Z,12.14
2018-03-07T12:06:03.506Z,12.07
2018-03-07T12:08:33.212Z,12.02
2018-03-07T12:11:03.053Z,11.91
2018-03-07T12:13:32.825Z,11.80
2018-03-07T12:16:03.431Z,11.83
2018-03-07T12:18:33.157Z,11.75
2018-03-07T12:21:02.946Z,11.52
2018-03-07T12:23:32.663Z,11.34
2018-03-07T12:26:02.525Z,11.26
2018-03-07T12:28:32.286Z,11.23
2018-03-07T12:31:02.780Z,11.33
2018-03-07T12:33:32.512Z,11.19
2018-03-07T12:36:02.217Z,11.13
2018-03-07T12:38:32.025Z,11.08
2018-03-07T12:41:01.779Z,11.16
2018-03-07T12:43:31.620Z,11.10
2018-03-07T12:46:02.146Z,11.14
2018-03-07T12:48:31.861Z,11.22
2018-03-07T12:51:01.635Z,11.47
2018-03-07T12:53:31.368Z,11.59
2018-03-07T12:56:01.141Z,11.75
2018-03-07T12:58:30.949Z,11.86
2018-03-07T13:01:00.712Z,11.97
2018-03-07T13:03:30.385Z,12.08
2018-03-07T13:06:00.196Z,12.09
2018-03-07T13:08:29.906Z,12.21
2018-03-07T13:13:28.665Z,12.10
2018-03-07T13:15:58.447Z,12.02
2018-03-07T13:18:28.137Z,11.91
2018-03-07T13:20:57.924Z,11.89
2018-03-07T13:23:27.930Z,11.78
2018-03-07T13:25:57.742Z,11.75
2018-03-07T13:28:28.180Z,11.65
2018-03-07T13:30:58.298Z,11.67
2018-03-07T13:33:29.025Z,11.73
2018-03-07T13:35:58.816Z,11.69
2018-03-07T13:38:28.588Z,11.66
2018-03-07T13:40:58.307Z,11.62
2018-03-07T13:43:28.203Z,11.69
2018-03-07T13:45:57.926Z,11.78
2018-03-07T13:48:27.653Z,11.91
2018-03-07T13:50:57.361Z,12.00
2018-03-07T13:53:27.179Z,11.94
2018-03-07T13:55:57.165Z,11.78
2018-03-07T13:58:27.025Z,11.79
2018-03-07T14:00:56.832Z,11.70
2018-03-07T14:03:26.714Z,11.66
2018-03-07T14:05:57.252Z,11.65
2018-03-07T14:08:27.748Z,11.65
2018-03-07T14:10:57.469Z,11.63
2018-03-07T14:13:27.208Z,11.72
2018-03-07T14:15:57.034Z,11.66
2018-03-07T14:18:26.847Z,11.69
2018-03-07T14:20:56.533Z,11.77
2018-03-07T14:23:26.391Z,11.78
2018-03-07T14:25:56.121Z,11.62
2018-03-07T14:28:25.888Z,11.56
2018-03-07T14:30:56.389Z,11.53
2018-03-07T14:33:26.118Z,11.54
2018-03-07T14:35:55.845Z,11.56
2018-03-07T14:38:25.648Z,11.51
2018-03-07T14:40:55.581Z,11.47
2018-03-07T14:43:25.432Z,11.43
2018-03-07T14:45:56.001Z,11.27
2018-03-07T14:48:25.707Z,11.17
2018-03-07T14:50:56.225Z,11.05
2018-03-07T14:53:25.968Z,11.11
2018-03-07T14:55:56.657Z,11.10
2018-03-07T14:58:26.405Z,11.07
2018-03-07T15:00:57.901Z,11.08
2018-03-07T15:03:28.504Z,11.04
2018-03-07T15:05:58.341Z,11.03
2018-03-07T15:08:28.204Z,11.01
2018-03-07T15:10:57.985Z,11.01
2018-03-07T15:13:27.746Z,10.97
2018-03-07T15:15:57.519Z,10.95
2018-03-07T15:18:27.304Z,10.92
2018-03-07T15:20:57.172Z,10.88
2018-03-07T15:23:27.019Z,10.87
2018-03-07T15:25:56.964Z,10.83
2018-03-07T15:28:26.734Z,10.84
2018-03-07T15:30:56.454Z,10.84
2018-03-07T15:33:26.236Z,10.81
2018-03-07T15:35:56.005Z,10.79
2018-03-07T15:38:25.792Z,10.74
2018-03-07T15:40:55.523Z,10.72
2018-03-07T15:43:25.349Z,10.73
2018-03-07T15:45:55.196Z,10.74
2018-03-07T15:48:25.229Z,10.74
2018-03-07T15:50:55.066Z,10.71
2018-03-07T15:53:25.543Z,10.70
2018-03-07T15:55:55.364Z,10.70
2018-03-07T15:58:25.210Z,10.74
2018-03-07T16:00:54.997Z,10.72
2018-03-07T16:03:25.538Z,10.77
2018-03-07T16:05:56.148Z,10.81
2018-03-07T16:08:25.870Z,10.85
2018-03-07T16:10:55.656Z,10.80
2018-03-07T16:13:25.410Z,10.85
2018-03-07T16:15:55.988Z,10.86
2018-03-07T16:18:26.491Z,10.87
2018-03-07T16:20:56.410Z,10.92
2018-03-07T16:23:26.104Z,10.91
2018-03-07T16:25:55.969Z,10.98
2018-03-07T16:28:25.748Z,10.97
2018-03-07T16:30:55.542Z,10.94
2018-03-07T16:33:26.307Z,10.91
2018-03-07T16:35:56.166Z,10.79
2018-03-07T16:38:25.903Z,10.76
2018-03-07T16:40:55.736Z,10.73
2018-03-07T16:43:25.712Z,10.65
2018-03-07T16:45:55.552Z,10.59
2018-03-07T16:48:25.665Z,10.55
2018-03-07T16:50:55.477Z,10.51
2018-03-07T16:53:25.408Z,10.49
2018-03-07T16:55:55.125Z,10.48
2018-03-07T16:58:24.927Z,10.46
2018-03-07T17:00:54.820Z,10.51
2018-03-07T17:03:24.569Z,10.48
2018-03-07T17:05:55.104Z,10.43
2018-03-07T17:08:24.856Z,10.45
2018-03-07T17:10:55.491Z,10.51
2018-03-07T17:13:26.052Z,10.44
2018-03-07T17:15:55.849Z,10.48
2018-03-07T17:18:25.688Z,10.35
2018-03-07T17:20:56.322Z,10.29
2018-03-07T17:23:26.856Z,10.19
2018-03-07T17:25:57.608Z,10.09
2018-03-07T17:28:28.260Z,9.94
2018-03-07T17:30:58.076Z,9.83
2018-03-07T17:33:28.551Z,9.73
2018-03-07T17:35:58.299Z,9.60
2018-03-07T17:38:28.020Z,9.54
2018-03-07T17:40:57.748Z,9.49
2018-03-07T17:43:28.345Z,9.46
2018-03-07T17:45:58.131Z,9.43
2018-03-07T17:48:27.833Z,9.41
2018-03-07T17:50:57.622Z,9.38
2018-03-07T17:53:27.397Z,9.36
2018-03-07T17:55:57.227Z,9.27
2018-03-07T17:58:27.738Z,9.26
2018-03-07T18:00:57.530Z,9.28
2018-03-07T18:03:27.255Z,9.31
2018-03-07T18:05:57.093Z,9.34
2018-03-07T18:08:26.870Z,9.35
2018-03-07T18:10:57.871Z,9.37
2018-03-07T18:13:27.717Z,9.38
2018-03-07T18:15:57.583Z,9.29
2018-03-07T18:18:27.430Z,9.24
2018-03-07T18:20:57.276Z,9.16
2018-03-07T18:23:27.088Z,9.16
2018-03-07T18:25:56.963Z,9.27
2018-03-07T18:28:27.062Z,9.21
2018-03-07T18:30:56.850Z,9.17
2018-03-07T18:33:26.754Z,9.20
2018-03-07T18:35:57.326Z,9.24
2018-03-07T18:38:27.116Z,9.24
2018-03-07T18:40:57.607Z,9.21
2018-03-07T18:43:27.546Z,9.14
2018-03-07T18:45:57.261Z,9.14
2018-03-07T18:48:27.088Z,9.11
2018-03-07T18:50:56.884Z,9.12
2018-03-07T18:53:26.616Z,9.15
2018-03-07T18:55:56.405Z,9.11
2018-03-07T18:58:26.193Z,9.10
2018-03-07T19:00:56.031Z,9.16
2018-03-07T19:03:25.748Z,9.18
2018-03-07T19:05:55.521Z,9.10
2018-03-07T19:08:25.285Z,9.09
2018-03-07T19:10:55.159Z,8.99
2018-03-07T19:13:24.906Z,9.01
2018-03-07T19:15:55.990Z,9.02
2018-03-07T19:18:25.784Z,8.99
2018-03-07T19:20:55.563Z,9.01
2018-03-07T19:23:26.128Z,9.02
2018-03-07T19:25:56.021Z,8.94
2018-03-07T19:28:26.587Z,8.88
2018-03-07T19:30:56.492Z,8.85
2018-03-07T19:33:26.983Z,8.91
2018-03-07T19:35:56.766Z,8.88
2018-03-07T19:38:26.568Z,8.88
2018-03-07T19:40:57.158Z,8.85
2018-03-07T19:43:26.979Z,8.81
2018-03-07T19:45:57.085Z,8.83
2018-03-07T19:48:26.795Z,8.80
2018-03-07T19:50:57.344Z,8.78
2018-03-07T19:53:27.242Z,8.71
2018-03-07T19:55:57.051Z,8.66
2018-03-07T19:58:26.960Z,8.70
2018-03-07T20:00:56.679Z,8.66
2018-03-07T20:03:26.494Z,8.65
2018-03-07T20:05:56.247Z,8.72
2018-03-07T20:08:26.121Z,8.71
2018-03-07T20:10:55.933Z,8.73
2018-03-07T20:13:25.695Z,8.68
2018-03-07T20:15:55.453Z,8.67
2018-03-07T20:18:25.201Z,8.63
2018-03-07T20:20:55.777Z,8.57
2018-03-07T20:23:25.657Z,8.54
2018-03-07T20:25:56.291Z,8.61
2018-03-07T20:28:26.023Z,8.57
2018-03-07T20:30:56.671Z,8.61
2018-03-07T20:33:27.667Z,8.64
2018-03-07T20:35:57.407Z,8.67
2018-03-07T20:38:27.996Z,8.63
2018-03-07T20:40:58.340Z,8.58
2018-03-07T20:43:28.128Z,8.68
2018-03-07T20:45:57.897Z,8.62
2018-03-07T20:48:27.836Z,8.63
2018-03-07T20:50:57.676Z,8.67
2018-03-07T20:53:27.500Z,8.64
2018-03-07T20:55:57.269Z,8.66
2018-03-07T20:58:28.128Z,8.60
2018-03-07T21:00:58.683Z,8.55
2018-03-07T21:03:28.489Z,8.57
2018-03-07T21:05:58.204Z,8.62
2018-03-07T21:08:29.136Z,8.54
2018-03-07T21:10:58.899Z,8.53
2018-03-07T21:13:28.873Z,8.36
2018-03-07T21:15:58.783Z,8.28
2018-03-07T21:18:29.020Z,8.22
2018-03-07T21:20:58.784Z,8.18
2018-03-07T21:23:29.355Z,8.15
2018-03-07T21:25:59.127Z,8.19
2018-03-07T21:28:28.851Z,8.26
2018-03-07T21:30:58.727Z,8.28
2018-03-07T21:33:28.600Z,8.26
2018-03-07T21:35:58.783Z,8.12
2018-03-07T21:38:28.582Z,8.06
2018-03-07T21:40:59.132Z,8.06
2018-03-07T21:43:29.773Z,7.97
2018-03-07T21:46:00.319Z,8.02
2018-03-07T21:48:30.884Z,8.02
2018-03-07T21:51:01.528Z,8.07
2018-03-07T21:53:31.387Z,8.06
2018-03-07T21:56:01.149Z,8.02
2018-03-07T21:58:31.833Z,7.98
2018-03-07T22:01:01.582Z,7.96
2018-03-07T22:03:31.463Z,8.00
2018-03-07T22:06:01.466Z,8.01
2018-03-07T22:08:32.020Z,8.00
2018-03-07T22:11:01.748Z,7.87
2018-03-07T22:13:31.774Z,7.78
2018-03-07T22:16:01.612Z,7.80
2018-03-07T22:18:31.517Z,7.77
2018-03-07T22:21:01.322Z,7.71
2018-03-07T22:23:31.109Z,7.71
2018-03-07T22:26:00.912Z,7.74
2018-03-07T22:28:30.781Z,7.66
2018-03-07T22:31:00.862Z,7.62
2018-03-07T22:33:30.616Z,7.53
2018-03-07T22:36:00.388Z,7.47
2018-03-07T22:38:30.240Z,7.53
2018-03-07T22:41:00.090Z,7.51
2018-03-07T22:43:29.854Z,7.46
2018-03-07T22:46:00.355Z,7.48
2018-03-07T22:48:30.590Z,7.45
2018-03-07T22:51:00.412Z,7.45
2018-03-07T22:53:30.314Z,7.54
2018-03-07T22:56:00.208Z,7.56
2018-03-07T22:58:29.941Z,7.58
2018-03-07T23:00:59.702Z,7.56
2018-03-07T23:03:29.548Z,7.45
2018-03-07T23:05:59.273Z,7.45
2018-03-07T23:08:29.082Z,7.48
2018-03-07T23:10:58.831Z,7.56
2018-03-07T23:13:29.044Z,7.49
2018-03-07T23:15:59.030Z,7.52
2018-03-07T23:18:28.788Z,7.54
2018-03-07T23:20:58.606Z,7.51
2018-03-07T23:23:28.383Z,7.52
2018-03-07T23:25:58.094Z,7.61
2018-03-07T23:28:28.673Z,7.55
2018-03-07T23:30:58.487Z,7.62
2018-03-07T23:33:28.213Z,7.68
2018-03-07T23:35:58.017Z,7.61
2018-03-07T23:38:27.839Z,7.59
2018-03-07T23:40:58.334Z,7.62
2018-03-07T23:43:28.073Z,7.65
2018-03-07T23:45:57.834Z,7.64
2018-03-07T23:48:27.587Z,7.70
2018-03-07T23:50:57.298Z,7.63
2018-03-07T23:53:27.128Z,7.71
2018-03-07T23:55:56.848Z,7.77
2018-03-07T23:58:26.628Z,7.77
